Toyomasa Maru — JJ3927 — position and weather

sailwx.info

Track history (hours):
 
Tides and Currents Weather Stations Pressure Air Temp Water Temp Dewpoint Dewpoint Depression Visibility Wind Speed Wind Dir Waves Ship Positions

Toyomasa Maru

Last reported at 2016-Jul-29 21:33 UTC. Time now 2016-Jul-29 21:43 UTC.
Position N 35°17' E 139°46'.

Length 101 m; draft 6.6 m.

Type: Tanker. MMSI: 431300401.

Date/timePositionNaut miles runAvg speedWind from/ knotsBaromVisibWave heightAir tempDewpointWater temp
2016-Jul-29 21:33N 35°17' E 139°46'1211.8
2016-Jul-29 20:33N 35°05' E 139°44'1812.7
2016-Jul-29 19:09N 34°54' E 139°27'  
2016-Jul-27 09:30N 35°07' E 139°42'1111.9
2016-Jul-27 08:34N 35°18' E 139°44'1111.3
2016-Jul-27 07:34N 35°29' E 139°48'3 3.4
2016-Jul-27 06:33N 35°32' E 139°48'0 0.0
2016-Jul-27 05:33N 35°32' E 139°48'0 0.0
2016-Jul-27 04:33N 35°32' E 139°48'0 0.0
2016-Jul-27 03:33N 35°32' E 139°48'0 0.0
2016-Jul-27 02:33N 35°32' E 139°48'1 1.0
2016-Jul-27 01:33N 35°31' E 139°48'2 1.8
2016-Jul-27 00:33N 35°31' E 139°50'0 0.0
2016-Jul-26 23:33N 35°31' E 139°50'0 0.0
2016-Jul-26 22:33N 35°31' E 139°50'0 0.0
2016-Jul-26 21:33N 35°31' E 139°50'0 0.0
2016-Jul-26 20:33N 35°31' E 139°50'0 0.0
2016-Jul-26 19:33N 35°31' E 139°50'0 0.0
2016-Jul-26 18:33N 35°31' E 139°50'0 0.0
2016-Jul-26 17:33N 35°31' E 139°50'0 0.0
2016-Jul-26 16:30N 35°31' E 139°50'0 0.1
2016-Jul-26 15:33N 35°31' E 139°50'0 0.0
2016-Jul-26 14:33N 35°31' E 139°50'0 0.0
2016-Jul-26 13:33N 35°31' E 139°50'0 0.0
2016-Jul-26 12:33N 35°31' E 139°50'0 0.0
2016-Jul-26 11:33N 35°31' E 139°50'0 0.0
2016-Jul-26 10:33N 35°31' E 139°50'0 0.0
2016-Jul-26 09:33N 35°31' E 139°50'0 0.1
2016-Jul-26 08:33N 35°31' E 139°50'9 9.0
2016-Jul-26 07:33N 35°23' E 139°45'1212.1
2016-Jul-26 06:33N 35°10' E 139°47'1212.1
2016-Jul-26 05:32N 35°00' E 139°38'59 1.8
2016-Jul-24 20:19N 34°32' E 138°35'6312.9
2016-Jul-24 15:28N 35°05' E 139°40'1213.1
2016-Jul-24 14:33N 35°16' E 139°46'1111.2
2016-Jul-24 13:34N 35°27' E 139°47'1414.0
2016-Jul-24 12:33N 35°35' E 140°02'3 1.4
2016-Jul-24 10:29N 35°36' E 140°05'0 0.0
2016-Jul-24 09:23N 35°36' E 140°05'0 0.0
2016-Jul-24 08:29N 35°36' E 140°05'0 0.0
2016-Jul-24 07:29N 35°36' E 140°05'0 0.0
2016-Jul-24 06:23N 35°36' E 140°05'0 0.3
2016-Jul-24 05:33N 35°36' E 140°04'1110.9
2016-Jul-24 04:33N 35°30' E 139°53'1212.1
2016-Jul-24 03:33N 35°20' E 139°45'1110.5
2016-Jul-24 02:33N 35°10' E 139°46'1312.3
2016-Jul-24 01:32N 34°59' E 139°37'13 0.4
2016-Jul-22 12:33N 35°11' E 139°45'1312.7
2016-Jul-22 11:34N 35°23' E 139°42'1414.3
2016-Jul-22 10:33N 35°32' E 139°56'8 7.5
2016-Jul-22 09:30N 35°36' E 140°05'0 0.0
2016-Jul-22 08:18N 35°36' E 140°05'0 0.0
2016-Jul-22 07:30N 35°36' E 140°05'0 0.0
2016-Jul-22 04:33N 35°36' E 140°05'3 2.5
2016-Jul-22 03:33N 35°35' E 140°02'3 3.2
2016-Jul-22 02:28N 35°34' E 139°58'0 0.0
2016-Jul-22 01:25N 35°34' E 139°58'0 0.0
2016-Jul-22 00:28N 35°34' E 139°58'5 5.2
2016-Jul-21 23:33N 35°31' E 139°54'1111.5
2016-Jul-21 22:33N 35°21' E 139°45'1110.6
2016-Jul-21 21:33N 35°11' E 139°47'244 6.3
2016-Jul-20 06:34N 34°14' E 134°58'1212.3
2016-Jul-20 05:33N 34°23' E 135°09'5 0.9
2016-Jul-20 00:33N 34°25' E 135°14'2 2.3
2016-Jul-19 23:32N 34°23' E 135°12'0 0.0
2016-Jul-19 22:32N 34°23' E 135°12'  
Track history (hours):
 
Tides and Currents Weather Stations Pressure Air Temp Water Temp Dewpoint Dewpoint Depression Visibility Wind Speed Wind Dir Waves Ship Positions

Toyomasa Maru

Last reported at 2016-Jul-29 21:33 UTC. Time now 2016-Jul-29 21:43 UTC.
Position N 35°17' E 139°46'.

Length 101 m; draft 6.6 m.

Type: Tanker. MMSI: 431300401.

Date/timePositionNaut miles runAvg speedWind from/ knotsBaromVisibWave heightAir tempDewpointWater temp
2016-Jul-29 21:33N 35°17' E 139°46'1211.8
2016-Jul-29 20:33N 35°05' E 139°44'1812.7
2016-Jul-29 19:09N 34°54' E 139°27'  
2016-Jul-27 09:30N 35°07' E 139°42'1111.9
2016-Jul-27 08:34N 35°18' E 139°44'1111.3
2016-Jul-27 07:34N 35°29' E 139°48'3 3.4
2016-Jul-27 06:33N 35°32' E 139°48'0 0.0
2016-Jul-27 05:33N 35°32' E 139°48'0 0.0
2016-Jul-27 04:33N 35°32' E 139°48'0 0.0
2016-Jul-27 03:33N 35°32' E 139°48'0 0.0
2016-Jul-27 02:33N 35°32' E 139°48'1 1.0
2016-Jul-27 01:33N 35°31' E 139°48'2 1.8
2016-Jul-27 00:33N 35°31' E 139°50'0 0.0
2016-Jul-26 23:33N 35°31' E 139°50'0 0.0
2016-Jul-26 22:33N 35°31' E 139°50'0 0.0
2016-Jul-26 21:33N 35°31' E 139°50'0 0.0
2016-Jul-26 20:33N 35°31' E 139°50'0 0.0
2016-Jul-26 19:33N 35°31' E 139°50'0 0.0
2016-Jul-26 18:33N 35°31' E 139°50'0 0.0
2016-Jul-26 17:33N 35°31' E 139°50'0 0.0
2016-Jul-26 16:30N 35°31' E 139°50'0 0.1
2016-Jul-26 15:33N 35°31' E 139°50'0 0.0
2016-Jul-26 14:33N 35°31' E 139°50'0 0.0
2016-Jul-26 13:33N 35°31' E 139°50'0 0.0
2016-Jul-26 12:33N 35°31' E 139°50'0 0.0
2016-Jul-26 11:33N 35°31' E 139°50'0 0.0
2016-Jul-26 10:33N 35°31' E 139°50'0 0.0
2016-Jul-26 09:33N 35°31' E 139°50'0 0.1
2016-Jul-26 08:33N 35°31' E 139°50'9 9.0
2016-Jul-26 07:33N 35°23' E 139°45'1212.1
2016-Jul-26 06:33N 35°10' E 139°47'1212.1
2016-Jul-26 05:32N 35°00' E 139°38'59 1.8
2016-Jul-24 20:19N 34°32' E 138°35'6312.9
2016-Jul-24 15:28N 35°05' E 139°40'1213.1
2016-Jul-24 14:33N 35°16' E 139°46'1111.2
2016-Jul-24 13:34N 35°27' E 139°47'1414.0
2016-Jul-24 12:33N 35°35' E 140°02'3 1.4
2016-Jul-24 10:29N 35°36' E 140°05'0 0.0
2016-Jul-24 09:23N 35°36' E 140°05'0 0.0
2016-Jul-24 08:29N 35°36' E 140°05'0 0.0
2016-Jul-24 07:29N 35°36' E 140°05'0 0.0
2016-Jul-24 06:23N 35°36' E 140°05'0 0.3
2016-Jul-24 05:33N 35°36' E 140°04'1110.9
2016-Jul-24 04:33N 35°30' E 139°53'1212.1
2016-Jul-24 03:33N 35°20' E 139°45'1110.5
2016-Jul-24 02:33N 35°10' E 139°46'1312.3
2016-Jul-24 01:32N 34°59' E 139°37'13 0.4
2016-Jul-22 12:33N 35°11' E 139°45'1312.7
2016-Jul-22 11:34N 35°23' E 139°42'1414.3
2016-Jul-22 10:33N 35°32' E 139°56'8 7.5
2016-Jul-22 09:30N 35°36' E 140°05'0 0.0
2016-Jul-22 08:18N 35°36' E 140°05'0 0.0
2016-Jul-22 07:30N 35°36' E 140°05'0 0.0
2016-Jul-22 04:33N 35°36' E 140°05'3 2.5
2016-Jul-22 03:33N 35°35' E 140°02'3 3.2
2016-Jul-22 02:28N 35°34' E 139°58'0 0.0
2016-Jul-22 01:25N 35°34' E 139°58'0 0.0
2016-Jul-22 00:28N 35°34' E 139°58'5 5.2
2016-Jul-21 23:33N 35°31' E 139°54'1111.5
2016-Jul-21 22:33N 35°21' E 139°45'1110.6
2016-Jul-21 21:33N 35°11' E 139°47'244 6.3
2016-Jul-20 06:34N 34°14' E 134°58'1212.3
2016-Jul-20 05:33N 34°23' E 135°09'5 0.9
2016-Jul-20 00:33N 34°25' E 135°14'2 2.3
2016-Jul-19 23:32N 34°23' E 135°12'0 0.0
2016-Jul-19 22:32N 34°23' E 135°12'  

Dump ship's entire track history